createdAt,value
2017-12-08T00:01:42.106Z,2.76
2017-12-08T00:04:08.542Z,3.86
2017-12-08T00:06:35.032Z,4.19
2017-12-08T00:09:01.579Z,4.34
2017-12-08T00:11:28.041Z,5.00
2017-12-08T00:13:54.598Z,4.95
2017-12-08T00:16:20.869Z,5.18
2017-12-08T00:18:47.338Z,5.66
2017-12-08T00:21:13.672Z,6.04
2017-12-08T00:23:40.077Z,6.44
2017-12-08T00:26:06.733Z,6.65
2017-12-08T00:28:33.302Z,6.78
2017-12-08T00:31:05.605Z,6.79
2017-12-08T00:33:32.230Z,6.96
2017-12-08T00:35:58.733Z,7.18
2017-12-08T00:38:25.196Z,7.38
2017-12-08T00:40:51.419Z,7.54
2017-12-08T00:43:17.785Z,7.73
2017-12-08T00:45:44.120Z,7.89
2017-12-08T00:48:10.417Z,7.76
2017-12-08T00:50:37.001Z,7.65
2017-12-08T00:53:03.633Z,7.65
2017-12-08T00:55:30.002Z,7.53
2017-12-08T00:57:56.357Z,7.42
2017-12-08T01:00:22.954Z,7.44
2017-12-08T01:02:49.355Z,7.28
2017-12-08T01:05:15.916Z,7.11
2017-12-08T01:07:42.224Z,7.07
2017-12-08T01:10:08.546Z,6.94
2017-12-08T01:12:34.673Z,6.73
2017-12-08T01:15:00.724Z,6.61
2017-12-08T01:17:26.733Z,6.46
2017-12-08T01:19:52.767Z,6.34
2017-12-08T01:22:18.967Z,6.27
2017-12-08T01:24:45.183Z,6.13
2017-12-08T01:27:11.321Z,6.03
2017-12-08T01:29:37.335Z,6.05
2017-12-08T01:32:03.432Z,6.04
2017-12-08T01:34:29.495Z,5.90
2017-12-08T01:36:55.509Z,5.84
2017-12-08T01:39:21.534Z,5.78
2017-12-08T01:41:47.575Z,5.93
2017-12-08T01:44:13.890Z,5.83
2017-12-08T01:46:40.292Z,5.80
2017-12-08T01:49:06.903Z,5.80
2017-12-08T01:51:33.334Z,5.76
2017-12-08T01:53:59.723Z,5.74
2017-12-08T01:56:26.162Z,5.80
2017-12-08T01:58:52.681Z,5.78
2017-12-08T02:01:19.202Z,5.78
2017-12-08T02:03:45.552Z,5.77
2017-12-08T02:06:11.804Z,5.77
2017-12-08T02:08:38.209Z,5.72
2017-12-08T02:11:04.898Z,5.68
2017-12-08T02:13:31.396Z,5.75
2017-12-08T02:15:57.760Z,5.72
2017-12-08T02:18:24.590Z,5.74
2017-12-08T02:20:51.132Z,5.72
2017-12-08T02:23:17.337Z,5.82
2017-12-08T02:25:43.907Z,5.76
2017-12-08T02:28:10.230Z,5.72
2017-12-08T02:30:36.719Z,5.72
2017-12-08T02:33:03.263Z,5.67
2017-12-08T02:35:29.569Z,5.66
2017-12-08T02:37:55.880Z,5.66
2017-12-08T02:40:22.267Z,5.68
2017-12-08T02:42:48.841Z,5.65
2017-12-08T02:45:15.124Z,5.66
2017-12-08T02:47:41.482Z,5.70
2017-12-08T02:50:07.859Z,5.72
2017-12-08T02:52:34.517Z,5.70
2017-12-08T02:55:00.935Z,5.70
2017-12-08T02:57:27.390Z,5.68
2017-12-08T02:59:53.797Z,5.74
2017-12-08T03:02:20.261Z,5.75
2017-12-08T03:04:46.856Z,5.64
2017-12-08T03:07:20.143Z,5.75
2017-12-08T03:09:46.613Z,5.71
2017-12-08T03:12:12.956Z,5.68
2017-12-08T03:14:39.655Z,5.59
2017-12-08T03:17:07.032Z,5.63
2017-12-08T03:19:33.527Z,5.58
2017-12-08T03:21:59.979Z,5.48
2017-12-08T03:24:26.492Z,5.45
2017-12-08T03:26:52.954Z,5.38
2017-12-08T03:29:19.469Z,5.33
2017-12-08T03:31:49.024Z,5.41
2017-12-08T03:34:15.900Z,5.35
2017-12-08T03:36:42.284Z,5.30
2017-12-08T03:39:08.648Z,5.30
2017-12-08T03:41:35.152Z,5.26
2017-12-08T03:44:01.897Z,5.24
2017-12-08T03:46:28.218Z,5.23
2017-12-08T03:48:54.653Z,5.22
2017-12-08T03:51:21.154Z,5.21
2017-12-08T03:53:47.689Z,5.23
2017-12-08T03:56:14.053Z,5.26
2017-12-08T03:58:40.491Z,5.21
2017-12-08T04:01:06.997Z,5.21
2017-12-08T04:03:33.567Z,5.21
2017-12-08T04:05:59.943Z,5.18
2017-12-08T04:08:26.326Z,5.17
2017-12-08T04:10:52.594Z,5.18
2017-12-08T04:13:19.101Z,5.26
2017-12-08T04:15:45.408Z,5.31
2017-12-08T04:18:11.766Z,5.24
2017-12-08T04:20:38.304Z,5.23
2017-12-08T04:23:04.664Z,5.20
2017-12-08T04:25:31.231Z,5.22
2017-12-08T04:27:57.658Z,5.25
2017-12-08T04:30:23.960Z,5.25
2017-12-08T04:32:50.122Z,5.25
2017-12-08T04:35:16.940Z,5.30
2017-12-08T04:37:43.513Z,5.30
2017-12-08T04:40:10.146Z,5.25
2017-12-08T04:42:36.574Z,5.23
2017-12-08T04:45:03.209Z,5.32
2017-12-08T04:47:36.664Z,5.28
2017-12-08T04:50:03.081Z,5.25
2017-12-08T04:52:29.739Z,5.26
2017-12-08T04:54:56.253Z,5.25
2017-12-08T04:57:22.607Z,5.27
2017-12-08T04:59:49.203Z,5.31
2017-12-08T05:02:15.553Z,5.33
2017-12-08T05:04:42.034Z,5.30
2017-12-08T05:07:08.484Z,5.32
2017-12-08T05:09:35.078Z,5.32
2017-12-08T05:12:01.471Z,5.31
2017-12-08T05:14:28.127Z,5.39
2017-12-08T05:16:54.689Z,5.42
2017-12-08T05:19:21.137Z,5.40
2017-12-08T05:21:47.505Z,5.43
2017-12-08T05:24:13.925Z,5.44
2017-12-08T05:26:40.476Z,5.46
2017-12-08T05:29:06.846Z,5.48
2017-12-08T05:31:33.342Z,5.53
2017-12-08T05:34:00.134Z,5.55
2017-12-08T05:36:26.393Z,5.59
2017-12-08T05:38:53.000Z,5.59
2017-12-08T05:41:19.556Z,5.58
2017-12-08T05:43:47.089Z,5.54
2017-12-08T05:46:13.349Z,5.60
2017-12-08T05:48:39.829Z,5.66
2017-12-08T05:51:06.521Z,5.63
2017-12-08T05:53:33.207Z,5.66
2017-12-08T05:56:01.736Z,5.61
2017-12-08T05:58:29.168Z,5.57
2017-12-08T06:00:55.739Z,5.55
2017-12-08T06:03:22.180Z,5.54
2017-12-08T06:05:48.649Z,5.56
2017-12-08T06:08:15.024Z,5.54
2017-12-08T06:10:41.616Z,5.58
2017-12-08T06:13:07.850Z,5.58
2017-12-08T06:15:34.488Z,5.62
2017-12-08T06:18:00.782Z,5.63
2017-12-08T06:20:27.200Z,5.67
2017-12-08T06:22:53.670Z,5.75
2017-12-08T06:25:20.201Z,5.78
2017-12-08T06:27:46.777Z,5.71
2017-12-08T06:30:14.307Z,5.72
2017-12-08T06:32:40.928Z,5.82
2017-12-08T06:35:07.445Z,5.73
2017-12-08T06:37:33.898Z,5.74
2017-12-08T06:40:00.480Z,5.73
2017-12-08T06:42:26.762Z,5.72
2017-12-08T06:44:55.027Z,5.70
2017-12-08T06:47:21.504Z,5.70
2017-12-08T06:49:47.925Z,5.71
2017-12-08T06:52:14.449Z,5.73
2017-12-08T06:54:40.952Z,5.77
2017-12-08T06:57:07.282Z,5.81
2017-12-08T06:59:33.654Z,5.79
2017-12-08T07:02:00.102Z,5.83
2017-12-08T07:04:26.737Z,5.86
2017-12-08T07:06:53.505Z,5.91
2017-12-08T07:09:20.011Z,5.92
2017-12-08T07:11:46.623Z,5.89
2017-12-08T07:14:13.235Z,5.92
2017-12-08T07:16:39.845Z,6.02
2017-12-08T07:19:06.701Z,5.98
2017-12-08T07:21:37.253Z,6.06
2017-12-08T07:24:03.707Z,5.98
2017-12-08T07:26:30.045Z,5.96
2017-12-08T07:28:56.808Z,5.92
2017-12-08T07:31:23.240Z,5.89
2017-12-08T07:33:49.826Z,5.90
2017-12-08T07:36:16.392Z,5.94
2017-12-08T07:38:43.424Z,5.91
2017-12-08T07:41:09.967Z,5.99
2017-12-08T07:43:36.581Z,6.07
2017-12-08T07:46:03.058Z,6.14
2017-12-08T07:48:29.782Z,6.10
2017-12-08T07:50:56.236Z,6.12
2017-12-08T07:53:22.702Z,6.11
2017-12-08T07:55:49.278Z,6.10
2017-12-08T07:58:15.770Z,6.11
2017-12-08T08:00:42.440Z,6.29
2017-12-08T08:03:09.067Z,6.28
2017-12-08T08:05:35.741Z,6.31
2017-12-08T08:08:03.732Z,6.27
2017-12-08T08:10:31.038Z,6.42
2017-12-08T08:12:59.648Z,6.33
2017-12-08T08:15:26.246Z,6.24
2017-12-08T08:17:52.421Z,6.18
2017-12-08T08:20:20.964Z,6.17
2017-12-08T08:22:49.460Z,6.19
2017-12-08T08:25:16.069Z,6.14
2017-12-08T08:27:42.795Z,6.14
2017-12-08T08:30:09.298Z,5.93
2017-12-08T08:32:35.881Z,5.79
2017-12-08T08:35:02.423Z,5.48
2017-12-08T08:37:28.708Z,5.37
2017-12-08T08:39:55.242Z,5.30
2017-12-08T08:42:21.603Z,5.11
2017-12-08T08:44:48.057Z,5.04
2017-12-08T08:47:14.912Z,5.04
2017-12-08T08:49:41.451Z,4.94
2017-12-08T08:52:08.941Z,4.82
2017-12-08T08:54:35.356Z,4.74
2017-12-08T08:59:35.964Z,4.69
2017-12-08T09:02:03.951Z,4.65
2017-12-08T09:07:03.047Z,4.56
2017-12-08T09:09:29.663Z,4.54
2017-12-08T09:11:56.800Z,4.52
2017-12-08T09:14:23.085Z,4.52
2017-12-08T09:16:49.552Z,4.52
2017-12-08T09:19:16.009Z,4.54
2017-12-08T09:21:48.399Z,4.56
2017-12-08T09:24:14.837Z,4.57
2017-12-08T09:26:41.394Z,4.58
2017-12-08T09:29:31.066Z,4.61
2017-12-08T09:31:57.531Z,4.62
2017-12-08T09:34:23.907Z,4.64
2017-12-08T09:36:52.280Z,4.65
2017-12-08T09:39:21.173Z,4.64
2017-12-08T09:41:47.717Z,4.64
2017-12-08T09:44:14.448Z,4.62
2017-12-08T09:46:42.695Z,4.62
2017-12-08T09:49:09.168Z,4.59
2017-12-08T09:51:35.856Z,4.62
2017-12-08T09:54:02.316Z,4.66
2017-12-08T09:56:29.070Z,4.68
2017-12-08T09:58:55.864Z,4.70
2017-12-08T10:01:22.366Z,4.67
2017-12-08T10:03:49.027Z,4.63
2017-12-08T10:06:19.685Z,4.58
2017-12-08T10:08:46.537Z,4.53
2017-12-08T10:11:12.919Z,4.49
2017-12-08T10:13:39.629Z,4.52
2017-12-08T10:16:06.135Z,4.48
2017-12-08T10:18:32.864Z,4.45
2017-12-08T10:20:59.407Z,4.47
2017-12-08T10:23:25.929Z,4.49
2017-12-08T10:25:52.123Z,4.55
2017-12-08T10:28:18.376Z,4.59
2017-12-08T10:30:46.816Z,4.58
2017-12-08T10:33:13.329Z,4.59
2017-12-08T10:35:40.123Z,4.59
2017-12-08T10:38:06.615Z,4.60
2017-12-08T10:40:33.133Z,4.64
2017-12-08T10:42:59.384Z,4.74
2017-12-08T10:45:25.787Z,4.77
2017-12-08T10:47:52.069Z,4.79
2017-12-08T10:50:18.620Z,4.83
2017-12-08T10:52:45.050Z,4.93
2017-12-08T10:55:11.476Z,4.90
2017-12-08T10:57:37.868Z,4.92
2017-12-08T11:00:04.445Z,4.93
2017-12-08T11:02:30.934Z,4.95
2017-12-08T11:04:57.281Z,5.00
2017-12-08T11:07:23.843Z,4.89
2017-12-08T11:09:50.298Z,4.84
2017-12-08T11:12:16.843Z,4.79
2017-12-08T11:14:43.374Z,5.00
2017-12-08T11:17:09.990Z,5.43
2017-12-08T11:19:36.703Z,5.78
2017-12-08T11:27:09.533Z,4.92
2017-12-08T11:29:37.357Z,4.68
2017-12-08T11:32:04.081Z,4.67
2017-12-08T11:34:30.425Z,4.79
2017-12-08T11:37:05.395Z,4.77
2017-12-08T11:39:31.846Z,4.74
2017-12-08T11:41:58.627Z,4.75
2017-12-08T11:44:24.863Z,4.86
2017-12-08T11:46:51.409Z,4.84
2017-12-08T11:49:18.196Z,4.96
2017-12-08T11:51:45.960Z,5.04
2017-12-08T11:54:13.574Z,5.17
2017-12-08T11:56:39.798Z,5.05
2017-12-08T11:59:05.875Z,5.01
2017-12-08T12:01:33.377Z,5.13
2017-12-08T12:03:59.905Z,5.25
2017-12-08T12:06:26.264Z,5.25
2017-12-08T12:08:52.640Z,5.24
2017-12-08T12:11:19.029Z,5.28
2017-12-08T12:13:45.446Z,5.21
2017-12-08T12:16:12.476Z,5.23
2017-12-08T12:21:25.984Z,5.30
2017-12-08T12:23:52.374Z,5.53
2017-12-08T12:26:18.588Z,5.93
2017-12-08T12:28:45.038Z,6.32
2017-12-08T12:31:13.037Z,6.93
2017-12-08T12:33:40.389Z,7.53
2017-12-08T12:36:07.495Z,8.02
2017-12-08T12:38:34.380Z,8.18
2017-12-08T12:41:01.164Z,8.10
2017-12-08T12:43:27.521Z,7.68
2017-12-08T12:45:54.349Z,7.14
2017-12-08T12:48:20.686Z,6.79
2017-12-08T12:50:47.144Z,6.51
2017-12-08T12:53:13.675Z,6.32
2017-12-08T12:55:40.422Z,6.20
2017-12-08T12:58:06.996Z,6.10
2017-12-08T13:00:33.611Z,6.05
2017-12-08T13:02:59.895Z,5.99
2017-12-08T13:05:26.393Z,5.99
2017-12-08T13:07:52.672Z,6.01
2017-12-08T13:10:19.164Z,6.06
2017-12-08T13:12:45.938Z,6.06
2017-12-08T13:15:12.228Z,6.05
2017-12-08T13:17:38.466Z,6.00
2017-12-08T13:20:04.845Z,5.92
2017-12-08T13:22:31.390Z,5.89
2017-12-08T13:24:57.892Z,5.81
2017-12-08T13:27:24.295Z,5.73
2017-12-08T13:32:42.832Z,5.29
2017-12-08T13:35:09.082Z,5.00
2017-12-08T13:37:35.616Z,4.83
2017-12-08T13:40:01.987Z,4.40
2017-12-08T13:42:28.262Z,3.79
2017-12-08T13:44:54.537Z,3.37
2017-12-08T13:47:20.878Z,2.95
2017-12-08T13:49:49.008Z,2.71
2017-12-08T13:52:16.085Z,2.53
2017-12-08T13:54:54.472Z,2.44
2017-12-08T13:57:20.745Z,2.41
2017-12-08T13:59:48.156Z,2.43
2017-12-08T14:02:14.720Z,2.51
2017-12-08T14:04:41.022Z,2.63
2017-12-08T14:07:07.621Z,2.65
2017-12-08T14:09:33.922Z,2.64
2017-12-08T14:12:00.212Z,2.58
2017-12-08T14:14:26.448Z,2.55
2017-12-08T14:16:52.823Z,2.44
2017-12-08T14:19:19.952Z,2.35
2017-12-08T14:21:46.098Z,2.31
2017-12-08T14:24:12.250Z,2.29
2017-12-08T14:26:38.865Z,2.30
2017-12-08T14:29:05.258Z,2.30
2017-12-08T14:31:31.432Z,2.35
2017-12-08T14:33:57.664Z,2.35
2017-12-08T14:36:23.887Z,2.40
2017-12-08T14:38:52.235Z,2.43
2017-12-08T14:41:18.589Z,2.47
2017-12-08T14:43:46.406Z,2.51
2017-12-08T14:46:12.929Z,2.48
2017-12-08T14:48:39.317Z,2.46
2017-12-08T14:51:05.973Z,2.45
2017-12-08T14:53:32.609Z,2.44
2017-12-08T14:55:59.332Z,2.42
2017-12-08T14:58:26.115Z,2.41
2017-12-08T15:00:53.727Z,2.41
2017-12-08T15:03:20.177Z,2.40
2017-12-08T15:05:47.132Z,2.46
2017-12-08T15:08:15.283Z,2.46
2017-12-08T15:10:42.859Z,2.44
2017-12-08T15:13:09.364Z,2.41
2017-12-08T15:15:37.205Z,2.39
2017-12-08T15:18:03.601Z,2.37
2017-12-08T15:20:29.995Z,2.34
2017-12-08T15:22:56.590Z,2.30
2017-12-08T15:25:22.917Z,2.31
2017-12-08T15:27:49.449Z,2.29
2017-12-08T15:30:15.543Z,2.30
2017-12-08T15:32:41.913Z,2.29
2017-12-08T15:35:08.363Z,2.31
2017-12-08T15:37:34.981Z,2.34
2017-12-08T15:40:01.336Z,2.38
2017-12-08T15:42:27.714Z,2.39
2017-12-08T15:44:54.326Z,2.36
2017-12-08T15:47:20.811Z,2.40
2017-12-08T15:49:47.078Z,2.44
2017-12-08T15:52:13.595Z,2.43
2017-12-08T15:54:40.013Z,2.51
2017-12-08T15:57:06.832Z,2.52
2017-12-08T15:59:33.351Z,2.61
2017-12-08T16:01:59.728Z,2.60
2017-12-08T16:04:26.368Z,2.61
2017-12-08T16:06:52.769Z,2.63
2017-12-08T16:09:19.267Z,2.60
2017-12-08T16:11:46.193Z,2.57
2017-12-08T16:14:12.728Z,2.54
2017-12-08T16:16:39.076Z,2.48
2017-12-08T16:19:06.043Z,2.44
2017-12-08T16:21:32.248Z,2.41
2017-12-08T16:23:58.786Z,2.35
2017-12-08T16:26:25.452Z,2.25
2017-12-08T16:28:52.050Z,2.12
2017-12-08T16:31:19.523Z,2.08
2017-12-08T16:33:46.025Z,2.02
2017-12-08T16:36:12.488Z,1.99
2017-12-08T16:38:38.951Z,1.97
2017-12-08T16:41:05.195Z,1.90
2017-12-08T16:43:31.373Z,1.89
2017-12-08T16:45:57.668Z,1.91
2017-12-08T16:48:23.941Z,1.87
2017-12-08T16:50:50.218Z,1.84
2017-12-08T16:53:16.693Z,1.83
2017-12-08T16:55:43.287Z,1.81
2017-12-08T16:58:09.664Z,1.82
2017-12-08T17:00:35.954Z,1.83
2017-12-08T17:03:02.263Z,1.84
2017-12-08T17:05:28.764Z,1.88
2017-12-08T17:07:55.191Z,1.87
2017-12-08T17:10:21.620Z,1.87
2017-12-08T17:12:48.031Z,1.90
2017-12-08T17:15:14.754Z,1.91
2017-12-08T17:17:41.101Z,1.90
2017-12-08T17:20:07.615Z,1.87
2017-12-08T17:22:33.982Z,1.84
2017-12-08T17:25:00.457Z,1.79
2017-12-08T17:27:27.695Z,1.77
2017-12-08T17:29:54.127Z,1.75
2017-12-08T17:32:20.504Z,1.68
2017-12-08T17:34:46.882Z,1.62
2017-12-08T17:37:13.162Z,1.57
2017-12-08T17:39:39.968Z,1.52
2017-12-08T17:42:06.223Z,1.50
2017-12-08T17:44:32.517Z,1.43
2017-12-08T17:46:58.867Z,1.35
2017-12-08T17:49:25.053Z,1.37
2017-12-08T17:51:51.493Z,1.38
2017-12-08T17:54:18.123Z,1.33
2017-12-08T17:56:44.401Z,1.27
2017-12-08T17:59:10.809Z,1.23
2017-12-08T18:01:37.155Z,1.29
2017-12-08T18:04:03.645Z,1.34
2017-12-08T18:06:30.007Z,1.35
2017-12-08T18:08:56.229Z,1.36
2017-12-08T18:11:22.469Z,1.35
2017-12-08T18:13:48.866Z,1.34
2017-12-08T18:16:15.343Z,1.33
2017-12-08T18:18:41.632Z,1.28
2017-12-08T18:21:07.916Z,1.23
2017-12-08T18:23:34.428Z,1.15
2017-12-08T18:26:00.771Z,1.09
2017-12-08T18:28:27.086Z,1.05
2017-12-08T18:30:53.566Z,1.03
2017-12-08T18:33:19.887Z,1.02
2017-12-08T18:35:46.075Z,1.02
2017-12-08T18:38:12.598Z,1.03
2017-12-08T18:40:38.930Z,1.05
2017-12-08T18:43:05.216Z,1.06
2017-12-08T18:45:31.675Z,1.09
2017-12-08T18:47:57.964Z,1.11
2017-12-08T18:50:24.375Z,1.13
2017-12-08T18:52:51.434Z,1.13
2017-12-08T18:55:17.838Z,1.12
2017-12-08T18:57:52.795Z,1.12
2017-12-08T19:00:18.996Z,1.11
2017-12-08T19:02:45.074Z,1.11
2017-12-08T19:05:11.152Z,1.11
2017-12-08T19:07:37.401Z,1.12
2017-12-08T19:10:03.729Z,1.13
2017-12-08T19:12:29.928Z,1.16
2017-12-08T19:14:56.784Z,1.19
2017-12-08T19:17:22.973Z,1.23
2017-12-08T19:19:49.139Z,1.27
2017-12-08T19:22:15.190Z,1.27
2017-12-08T19:24:41.398Z,1.27
2017-12-08T19:27:07.638Z,1.27
2017-12-08T19:29:33.763Z,1.27
2017-12-08T19:32:00.465Z,1.29
2017-12-08T19:34:26.744Z,1.32
2017-12-08T19:36:53.377Z,1.43
2017-12-08T19:39:19.722Z,1.57
2017-12-08T19:41:47.267Z,1.66
2017-12-08T19:44:13.813Z,1.76
2017-12-08T19:46:40.033Z,1.88
2017-12-08T19:49:06.472Z,1.98
2017-12-08T19:51:32.805Z,1.99
2017-12-08T19:53:59.560Z,1.97
2017-12-08T19:56:26.079Z,1.95
2017-12-08T19:58:52.685Z,1.90
2017-12-08T20:01:19.584Z,1.81
2017-12-08T20:03:46.752Z,1.70
2017-12-08T20:06:13.277Z,1.56
2017-12-08T20:08:40.071Z,1.44
2017-12-08T20:11:06.426Z,1.28
2017-12-08T20:13:32.888Z,1.15
2017-12-08T20:15:59.551Z,1.09
2017-12-08T20:18:30.966Z,1.06
2017-12-08T20:20:57.613Z,0.99
2017-12-08T20:23:25.702Z,0.94
2017-12-08T20:33:41.954Z,0.79
2017-12-08T20:36:14.424Z,0.75
2017-12-08T20:46:29.994Z,0.70
2017-12-08T20:48:58.686Z,0.68
2017-12-08T20:51:25.485Z,0.66
2017-12-08T20:53:52.085Z,0.64
2017-12-08T20:56:18.766Z,0.65
2017-12-08T20:58:45.194Z,0.67
2017-12-08T21:01:11.797Z,0.68
2017-12-08T21:03:38.285Z,0.69
2017-12-08T21:06:05.993Z,0.71
2017-12-08T21:08:32.630Z,0.72
2017-12-08T21:10:59.282Z,0.72
2017-12-08T21:13:26.451Z,0.71
2017-12-08T21:15:53.153Z,0.69
2017-12-08T21:18:19.459Z,0.67
2017-12-08T21:20:45.823Z,0.67
2017-12-08T21:23:12.637Z,0.67
2017-12-08T21:25:39.084Z,0.64
2017-12-08T21:28:05.469Z,0.64
2017-12-08T21:30:32.225Z,0.64
2017-12-08T21:32:58.697Z,0.69
2017-12-08T21:35:24.980Z,0.67
2017-12-08T21:37:51.298Z,0.62
2017-12-08T21:40:17.523Z,0.58
2017-12-08T21:42:43.816Z,0.53
2017-12-08T21:45:10.141Z,0.47
2017-12-08T21:47:36.692Z,0.42
2017-12-08T21:50:03.006Z,0.40
2017-12-08T21:52:29.400Z,0.36
2017-12-08T21:54:55.745Z,0.31
2017-12-08T21:57:21.994Z,0.32
2017-12-08T21:59:48.490Z,0.25
2017-12-08T22:02:15.236Z,0.16
2017-12-08T22:04:41.513Z,0.06
2017-12-08T22:07:07.972Z,-0.04
2017-12-08T22:09:34.510Z,-0.07
2017-12-08T22:12:01.036Z,-0.07
2017-12-08T22:14:27.328Z,-0.10
2017-12-08T22:16:53.621Z,-0.07
2017-12-08T22:19:20.997Z,-0.10
2017-12-08T22:21:47.824Z,-0.18
2017-12-08T22:24:14.195Z,-0.15
2017-12-08T22:26:40.569Z,-0.15
2017-12-08T22:29:07.093Z,-0.20
2017-12-08T22:31:33.695Z,-0.17
2017-12-08T22:33:59.825Z,-0.19
2017-12-08T22:36:26.112Z,-0.25
2017-12-08T22:38:52.400Z,-0.21
2017-12-08T22:41:18.858Z,-0.15
2017-12-08T22:43:45.228Z,-0.12
2017-12-08T22:46:11.677Z,-0.10
2017-12-08T22:48:38.073Z,-0.04
2017-12-08T22:51:04.615Z,-0.04
2017-12-08T22:53:31.277Z,-0.06
2017-12-08T22:55:57.633Z,-0.07
2017-12-08T22:58:24.285Z,-0.12
2017-12-08T23:00:50.741Z,-0.15
2017-12-08T23:03:18.098Z,-0.19
2017-12-08T23:05:44.581Z,-0.26
2017-12-08T23:08:11.112Z,-0.30
2017-12-08T23:10:37.302Z,-0.33
2017-12-08T23:13:03.736Z,-0.37
2017-12-08T23:15:30.161Z,-0.38
2017-12-08T23:17:56.472Z,-0.45
2017-12-08T23:20:23.043Z,-0.52
2017-12-08T23:22:49.395Z,-0.59
2017-12-08T23:25:15.783Z,-0.66
2017-12-08T23:27:42.501Z,-0.75
2017-12-08T23:30:09.854Z,-0.81
2017-12-08T23:32:36.286Z,-0.85
2017-12-08T23:35:02.836Z,-0.85
2017-12-08T23:37:29.274Z,-0.87
2017-12-08T23:39:55.771Z,-0.87
2017-12-08T23:42:21.998Z,-0.92
2017-12-08T23:44:48.416Z,-1.03
2017-12-08T23:47:14.609Z,-1.07
2017-12-08T23:49:40.861Z,-1.14
2017-12-08T23:52:07.349Z,-1.19
2017-12-08T23:54:33.825Z,-1.30
2017-12-08T23:57:00.116Z,-1.40
2017-12-08T23:59:26.479Z,-1.52
